Time;durP1;ratioP1;P1;durP2;ratioP2;P2;SDS_P1;SDS_P2;PMS_P1;PMS_P2;Temp;Humidity;BMP_temperature;BMP_pressure;BME280_temperature;BME280_humidity;BME280_pressure;Samples;Min_cycle;Max_cycle;Signal;HPM_P1;HPM_P2
2023/07/19 00:02:21;;;;;;;10.43;3.53;;;16.40;99.90;;;;;;5065637;28;20071;-73
2023/07/19 00:04:47;;;;;;;11.77;3.97;;;16.30;99.90;;;;;;5069032;28;20451;-73
2023/07/19 00:07:13;;;;;;;11.80;5.00;;;16.30;99.90;;;;;;5066492;28;20025;-73
2023/07/19 00:09:38;;;;;;;11.80;4.47;;;16.30;99.90;;;;;;5063644;28;20155;-73
2023/07/19 00:12:06;;;;;;;13.82;5.35;;;16.20;99.90;;;;;;5070262;28;20038;-73
2023/07/19 00:14:31;;;;;;;13.10;4.68;;;16.20;99.90;;;;;;5068272;28;20032;-73
2023/07/19 00:16:57;;;;;;;16.52;5.63;;;16.20;99.90;;;;;;5069662;28;20380;-73
2023/07/19 00:19:22;;;;;;;10.40;4.82;;;16.10;99.90;;;;;;5065633;28;20433;-73
2023/07/19 00:21:48;;;;;;;11.00;4.45;;;16.00;99.90;;;;;;5068057;28;20032;-72
2023/07/19 00:24:14;;;;;;;10.65;4.53;;;16.00;99.90;;;;;;5069273;28;20036;-72
2023/07/19 00:26:39;;;;;;;11.82;4.60;;;15.90;99.90;;;;;;5064912;28;20028;-73
2023/07/19 00:29:05;;;;;;;9.93;4.55;;;15.90;99.90;;;;;;5065351;28;20528;-73
2023/07/19 00:31:30;;;;;;;11.70;4.40;;;15.80;99.90;;;;;;5068738;28;20020;-73
2023/07/19 00:33:56;;;;;;;9.07;4.38;;;15.80;99.90;;;;;;5068369;28;20128;-72
2023/07/19 00:36:21;;;;;;;13.68;4.82;;;15.80;99.90;;;;;;5067966;28;20021;-72
2023/07/19 00:38:47;;;;;;;9.02;3.78;;;15.70;99.90;;;;;;5066782;28;20694;-72
2023/07/19 00:41:13;;;;;;;10.70;4.28;;;15.60;99.90;;;;;;5067632;28;20139;-72
2023/07/19 00:43:38;;;;;;;11.40;4.05;;;15.60;99.90;;;;;;5068329;28;20035;-72
2023/07/19 00:46:05;;;;;;;9.90;4.30;;;15.60;99.90;;;;;;5067780;28;20021;-73
2023/07/19 00:48:31;;;;;;;7.90;4.78;;;15.50;99.90;;;;;;5065602;28;20032;-73
2023/07/19 00:50:57;;;;;;;10.52;5.03;;;15.50;99.90;;;;;;5070742;28;20029;-73
2023/07/19 00:53:25;;;;;;;7.88;4.57;;;15.40;99.90;;;;;;5070210;28;20028;-73
2023/07/19 00:55:52;;;;;;;8.52;4.28;;;15.40;99.90;;;;;;5067003;28;20020;-73
2023/07/19 00:58:25;;;;;;;9.60;4.07;;;15.30;99.90;;;;;;5062455;28;20090;-73
2023/07/19 01:00:52;;;;;;;8.82;4.88;;;15.30;99.90;;;;;;5066536;28;20024;-73
2023/07/19 01:03:21;;;;;;;11.10;4.70;;;15.30;99.90;;;;;;5064505;28;20131;-73
2023/07/19 01:05:47;;;;;;;6.45;3.55;;;15.30;99.90;;;;;;5063912;28;20028;-73
2023/07/19 01:08:13;;;;;;;7.15;3.80;;;15.30;99.90;;;;;;5067172;28;20035;-73
2023/07/19 01:10:38;;;;;;;7.15;3.80;;;15.30;99.90;;;;;;5064573;28;20385;-74
2023/07/19 01:13:06;;;;;;;7.72;3.72;;;15.20;99.90;;;;;;5066169;28;20075;-73
2023/07/19 01:15:32;;;;;;;8.65;3.80;;;15.30;99.90;;;;;;5061239;28;20021;-72
2023/07/19 01:17:58;;;;;;;8.27;3.75;;;15.20;99.90;;;;;;5067530;28;20086;-73
2023/07/19 01:20:24;;;;;;;9.00;4.00;;;15.20;99.90;;;;;;5063017;28;20119;-72
2023/07/19 01:22:49;;;;;;;8.57;5.50;;;15.20;99.90;;;;;;5057342;28;20040;-73
2023/07/19 01:25:15;;;;;;;7.07;4.35;;;15.10;99.90;;;;;;5068223;28;20410;-73
2023/07/19 01:27:40;;;;;;;12.77;5.60;;;15.00;99.90;;;;;;5065621;28;20085;-72
2023/07/19 01:30:07;;;;;;;8.60;4.75;;;15.00;99.90;;;;;;5069500;28;20032;-73
2023/07/19 01:32:32;;;;;;;6.45;4.45;;;15.10;99.90;;;;;;5071521;28;20036;-72
2023/07/19 01:34:58;;;;;;;8.68;4.65;;;15.00;99.90;;;;;;5072238;28;20032;-73
2023/07/19 01:37:24;;;;;;;6.32;4.80;;;15.00;99.90;;;;;;5070119;28;20335;-72
2023/07/19 01:39:50;;;;;;;10.10;4.93;;;14.90;99.90;;;;;;5065202;28;20053;-73
2023/07/19 01:42:16;;;;;;;6.93;5.25;;;15.00;99.90;;;;;;5071436;28;20109;-72
2023/07/19 01:44:42;;;;;;;7.07;4.55;;;14.90;99.90;;;;;;5066097;28;20020;-73
2023/07/19 01:47:08;;;;;;;11.25;4.40;;;15.00;99.90;;;;;;5072415;28;20021;-72
2023/07/19 01:49:33;;;;;;;7.60;4.50;;;15.00;99.90;;;;;;5068805;28;20051;-72
2023/07/19 01:51:59;;;;;;;9.23;4.82;;;14.90;99.90;;;;;;5069064;28;20021;-72
2023/07/19 01:54:25;;;;;;;10.55;4.03;;;14.90;99.90;;;;;;5071528;28;20036;-73
2023/07/19 01:56:50;;;;;;;4.60;4.07;;;14.90;99.90;;;;;;5067854;28;20028;-72
2023/07/19 01:59:15;;;;;;;11.30;4.97;;;14.90;99.90;;;;;;5066242;28;20029;-73
2023/07/19 02:01:43;;;;;;;12.75;4.28;;;14.90;99.90;;;;;;5065167;28;20079;-73
2023/07/19 02:04:09;;;;;;;11.98;3.95;;;15.00;99.90;;;;;;5069321;28;20089;-72
2023/07/19 02:06:34;;;;;;;11.88;4.80;;;15.00;99.90;;;;;;5071700;28;20020;-73
2023/07/19 02:09:00;;;;;;;6.15;4.05;;;15.00;99.90;;;;;;5071978;28;20040;-72
2023/07/19 02:11:25;;;;;;;7.35;4.65;;;15.00;99.90;;;;;;5070634;28;20468;-72
2023/07/19 02:13:51;;;;;;;8.32;5.20;;;15.00;99.90;;;;;;5069471;28;20040;-73
2023/07/19 02:16:17;;;;;;;9.82;5.03;;;15.00;99.90;;;;;;5068820;28;20059;-72
2023/07/19 02:18:42;;;;;;;5.80;4.15;;;15.00;99.90;;;;;;5067311;28;20468;-73
2023/07/19 02:21:08;;;;;;;8.88;4.80;;;15.00;99.90;;;;;;5069620;28;20027;-72
2023/07/19 02:23:34;;;;;;;8.20;4.55;;;15.00;99.90;;;;;;5069422;28;20032;-73
2023/07/19 02:25:59;;;;;;;6.68;4.50;;;15.00;99.90;;;;;;5063217;28;20016;-72
2023/07/19 02:28:25;;;;;;;7.00;4.95;;;14.90;99.90;;;;;;5060406;28;20401;-72
2023/07/19 02:30:50;;;;;;;9.00;4.95;;;14.80;99.90;;;;;;5071180;28;20016;-72
2023/07/19 02:33:16;;;;;;;5.53;4.47;;;14.80;99.90;;;;;;5068898;28;20210;-72
2023/07/19 02:35:42;;;;;;;10.23;5.72;;;14.80;99.90;;;;;;5071907;28;20120;-72
2023/07/19 02:38:08;;;;;;;10.00;5.18;;;14.80;99.90;;;;;;5067987;28;20468;-72
2023/07/19 02:40:34;;;;;;;7.38;4.85;;;14.70;99.90;;;;;;5064592;28;20052;-73
2023/07/19 02:43:00;;;;;;;11.32;5.50;;;14.70;99.90;;;;;;5069812;28;20021;-73
2023/07/19 02:45:26;;;;;;;7.68;5.00;;;14.70;99.90;;;;;;5071734;28;20407;-72
2023/07/19 02:47:51;;;;;;;8.13;4.80;;;14.70;99.90;;;;;;5068015;28;20044;-72
2023/07/19 02:50:20;;;;;;;7.95;4.75;;;14.60;99.90;;;;;;5064087;28;20021;-72
2023/07/19 02:52:46;;;;;;;9.73;5.00;;;14.70;99.90;;;;;;5064383;28;20033;-72
2023/07/19 02:55:12;;;;;;;7.10;5.20;;;14.60;99.90;;;;;;5070938;28;20086;-73
2023/07/19 02:57:38;;;;;;;6.93;4.93;;;14.60;99.90;;;;;;5066686;28;20024;-72
2023/07/19 03:00:04;;;;;;;10.05;6.28;;;14.60;99.90;;;;;;5069187;28;20038;-73
2023/07/19 03:02:30;;;;;;;9.88;5.57;;;14.60;99.90;;;;;;5067619;28;20049;-72
2023/07/19 03:04:56;;;;;;;8.95;5.97;;;14.60;99.90;;;;;;5065888;28;20024;-73
2023/07/19 03:07:23;;;;;;;6.45;5.65;;;14.60;99.90;;;;;;5066385;28;20028;-73
2023/07/19 03:09:49;;;;;;;10.38;6.40;;;14.60;99.90;;;;;;5058176;28;20062;-72
2023/07/19 03:12:14;;;;;;;10.80;7.35;;;14.60;99.90;;;;;;5068027;28;20056;-72
2023/07/19 03:14:40;;;;;;;10.40;7.03;;;14.50;99.90;;;;;;5068451;28;20078;-73
2023/07/19 03:17:06;;;;;;;13.05;6.90;;;14.50;99.90;;;;;;5067382;28;20512;-73
2023/07/19 03:19:31;;;;;;;10.05;6.07;;;14.60;99.90;;;;;;5066562;28;20388;-73
2023/07/19 03:21:57;;;;;;;8.55;5.65;;;14.60;99.90;;;;;;5063686;28;20079;-73
2023/07/19 03:24:22;;;;;;;10.18;6.25;;;14.60;99.90;;;;;;5067570;28;20035;-73
2023/07/19 03:26:48;;;;;;;10.02;6.60;;;14.60;99.90;;;;;;5065002;28;20529;-72
2023/07/19 03:29:14;;;;;;;9.60;6.78;;;14.60;99.90;;;;;;5069037;28;20571;-72
2023/07/19 03:31:40;;;;;;;8.32;6.38;;;14.60;99.90;;;;;;5062337;28;20253;-72
2023/07/19 03:34:06;;;;;;;8.82;5.35;;;14.60;99.90;;;;;;5062860;28;20078;-72
2023/07/19 03:36:31;;;;;;;11.32;6.82;;;14.60;99.90;;;;;;5064219;28;20111;-72
2023/07/19 03:38:57;;;;;;;11.85;6.70;;;14.60;99.90;;;;;;5067896;28;20033;-72
2023/07/19 03:41:23;;;;;;;13.00;7.10;;;14.60;99.90;;;;;;5066318;28;20028;-72
2023/07/19 03:43:49;;;;;;;13.23;7.50;;;14.60;99.90;;;;;;5062551;28;20392;-72
2023/07/19 03:46:14;;;;;;;13.52;9.48;;;14.60;99.90;;;;;;5066944;28;20028;-72
2023/07/19 03:48:40;;;;;;;14.38;8.68;;;14.70;99.90;;;;;;5068491;28;20040;-72
2023/07/19 03:51:06;;;;;;;10.65;8.10;;;14.70;99.90;;;;;;5063500;28;20078;-72
2023/07/19 03:53:32;;;;;;;9.13;7.03;;;14.70;99.90;;;;;;5063902;28;20108;-72
2023/07/19 03:55:59;;;;;;;11.40;7.70;;;14.70;99.90;;;;;;5064921;28;20112;-72
2023/07/19 03:58:26;;;;;;;12.30;7.85;;;14.70;99.90;;;;;;5064225;28;20040;-72
2023/07/19 04:00:57;;;;;;;12.88;7.47;;;14.70;99.90;;;;;;5060964;28;20016;-72
2023/07/19 04:03:24;;;;;;;10.05;7.50;;;14.80;99.90;;;;;;5068168;28;20052;-72
2023/07/19 04:05:49;;;;;;;14.32;7.18;;;14.80;99.90;;;;;;5065086;28;20103;-72
2023/07/19 04:08:16;;;;;;;8.70;6.85;;;14.80;99.90;;;;;;5067051;28;20123;-72
2023/07/19 04:10:42;;;;;;;10.82;7.15;;;14.90;99.90;;;;;;5068629;28;20020;-71
2023/07/19 04:13:10;;;;;;;9.82;6.97;;;15.00;99.90;;;;;;5071578;28;20103;-71
2023/07/19 04:15:36;;;;;;;13.38;7.40;;;15.00;99.90;;;;;;5067267;28;20028;-72
2023/07/19 04:18:02;;;;;;;11.30;8.30;;;15.00;99.90;;;;;;5069241;28;20538;-72
2023/07/19 04:20:31;;;;;;;10.35;8.02;;;15.10;99.90;;;;;;5065340;28;20477;-71
2023/07/19 04:22:57;;;;;;;10.98;7.75;;;15.10;99.90;;;;;;5070079;28;20115;-72
2023/07/19 04:25:24;;;;;;;12.43;8.35;;;15.10;99.90;;;;;;5068297;28;20099;-72
2023/07/19 04:27:51;;;;;;;11.68;8.18;;;15.20;99.90;;;;;;5068166;28;20794;-73
2023/07/19 04:30:17;;;;;;;12.85;7.70;;;15.30;99.90;;;;;;5065741;28;20032;-73
2023/07/19 04:32:43;;;;;;;13.05;7.00;;;15.30;99.90;;;;;;5070582;28;20028;-73
2023/07/19 04:35:09;;;;;;;10.65;7.43;;;15.30;99.90;;;;;;5062228;28;20509;-73
2023/07/19 04:37:35;;;;;;;7.97;7.18;;;15.30;99.90;;;;;;5068198;28;20028;-73
2023/07/19 04:40:01;;;;;;;15.20;8.70;;;15.40;99.90;;;;;;5067245;28;20425;-73
2023/07/19 04:42:28;;;;;;;9.15;7.53;;;15.50;99.90;;;;;;5069179;28;20092;-73
2023/07/19 04:44:53;;;;;;;10.30;6.55;;;15.50;99.90;;;;;;5068311;28;20028;-73
2023/07/19 04:47:19;;;;;;;10.35;7.13;;;15.50;99.90;;;;;;5060597;28;20033;-73
2023/07/19 04:49:45;;;;;;;10.43;7.47;;;15.60;99.90;;;;;;5064804;28;20036;-73
2023/07/19 04:52:10;;;;;;;11.07;7.35;;;15.70;99.90;;;;;;5068576;28;20389;-73
2023/07/19 04:54:36;;;;;;;9.27;8.05;;;15.70;99.90;;;;;;5067655;28;20526;-73
2023/07/19 04:57:02;;;;;;;9.50;7.97;;;15.70;99.90;;;;;;5069833;28;20497;-73
2023/07/19 04:59:27;;;;;;;9.82;7.20;;;15.80;99.90;;;;;;5069677;28;20029;-73
2023/07/19 05:01:53;;;;;;;12.07;8.48;;;15.90;99.90;;;;;;5062214;28;20380;-73
2023/07/19 05:04:18;;;;;;;10.15;6.65;;;16.00;99.90;;;;;;5068177;28;20036;-73
2023/07/19 05:06:44;;;;;;;10.68;6.63;;;16.10;99.90;;;;;;5066795;28;20024;-73
2023/07/19 05:09:10;;;;;;;10.57;7.63;;;16.20;99.90;;;;;;5068924;28;20036;-73
2023/07/19 05:11:36;;;;;;;9.27;6.68;;;16.20;99.90;;;;;;5068848;28;20038;-73
2023/07/19 05:14:02;;;;;;;11.07;7.30;;;16.20;99.90;;;;;;5067415;28;20025;-73
2023/07/19 05:16:27;;;;;;;9.43;7.00;;;16.30;99.90;;;;;;5064073;28;20396;-74
2023/07/19 05:18:53;;;;;;;8.60;6.35;;;16.40;99.90;;;;;;5063861;28;20106;-74
2023/07/19 05:21:19;;;;;;;10.20;6.20;;;16.50;99.90;;;;;;5054087;28;20029;-73
2023/07/19 05:23:45;;;;;;;9.13;5.63;;;16.60;99.90;;;;;;5058291;28;20017;-73
2023/07/19 05:26:14;;;;;;;7.63;6.20;;;16.70;99.90;;;;;;5065606;28;20052;-73
2023/07/19 05:28:40;;;;;;;7.55;5.63;;;16.90;99.90;;;;;;5062442;28;20044;-73
2023/07/19 05:31:09;;;;;;;9.40;5.65;;;17.00;99.90;;;;;;5066573;28;20024;-73
2023/07/19 05:33:35;;;;;;;9.85;4.93;;;17.20;99.90;;;;;;5058796;28;20488;-72
2023/07/19 05:36:01;;;;;;;10.27;5.53;;;17.40;99.90;;;;;;5065112;28;20093;-72
2023/07/19 05:38:27;;;;;;;9.80;5.60;;;17.50;99.90;;;;;;5067070;28;20477;-73
2023/07/19 05:41:02;;;;;;;7.50;5.13;;;17.50;99.90;;;;;;5074384;28;20477;-72
2023/07/19 05:43:29;;;;;;;7.43;5.47;;;17.60;99.90;;;;;;5069421;28;20039;-73
2023/07/19 05:46:10;;;;;;;11.15;4.93;;;17.60;99.90;;;;;;5069252;28;20561;-72
2023/07/19 05:48:36;;;;;;;8.43;4.47;;;17.70;99.90;;;;;;5060810;28;20079;-74
2023/07/19 05:51:03;;;;;;;9.07;6.65;;;17.70;99.90;;;;;;5058104;28;20424;-73
2023/07/19 05:53:29;;;;;;;15.32;9.77;;;17.70;99.90;;;;;;5057812;28;20107;-73
2023/07/19 05:55:54;;;;;;;9.32;7.32;;;17.80;99.90;;;;;;5064185;28;20115;-72
2023/07/19 05:58:20;;;;;;;8.55;5.03;;;17.80;99.90;;;;;;5081283;28;20040;-73
2023/07/19 06:00:47;;;;;;;9.60;4.57;;;18.00;99.90;;;;;;5062337;28;22022;-74
2023/07/19 06:03:16;;;;;;;11.10;5.00;;;18.00;99.90;;;;;;5057764;28;20505;-73
2023/07/19 06:05:43;;;;;;;8.85;4.78;;;18.10;99.90;;;;;;5061383;28;20052;-73
2023/07/19 06:08:09;;;;;;;9.38;4.43;;;18.20;99.90;;;;;;5068347;28;20040;-73
2023/07/19 06:10:35;;;;;;;8.88;4.95;;;18.40;99.90;;;;;;5061252;28;20070;-73
2023/07/19 06:13:00;;;;;;;8.07;4.57;;;18.50;99.90;;;;;;5060173;28;20029;-73
2023/07/19 06:15:26;;;;;;;8.63;4.28;;;18.60;99.90;;;;;;5063385;28;20113;-73
2023/07/19 06:17:52;;;;;;;6.63;4.35;;;18.80;99.90;;;;;;5061644;28;20078;-73
2023/07/19 06:20:17;;;;;;;8.40;4.43;;;18.80;99.90;;;;;;5071517;28;20024;-74
2023/07/19 06:22:43;;;;;;;9.05;4.22;;;18.80;99.90;;;;;;5062922;28;20489;-73
2023/07/19 06:25:09;;;;;;;11.70;4.80;;;18.80;99.90;;;;;;5072245;28;20056;-73
2023/07/19 06:27:35;;;;;;;13.05;4.20;;;18.90;99.90;;;;;;5061829;28;20037;-73
2023/07/19 06:30:00;;;;;;;8.05;4.78;;;19.00;99.90;;;;;;5070776;28;20396;-73
2023/07/19 06:32:26;;;;;;;8.40;4.32;;;19.10;99.90;;;;;;5064180;28;20492;-73
2023/07/19 06:34:51;;;;;;;9.93;4.10;;;19.20;99.90;;;;;;5057907;28;20109;-73
2023/07/19 06:37:17;;;;;;;5.72;3.78;;;19.30;99.90;;;;;;5062922;28;20374;-73
2023/07/19 06:39:42;;;;;;;8.38;4.35;;;19.50;99.90;;;;;;5063153;28;20025;-73
2023/07/19 06:42:08;;;;;;;12.88;4.28;;;19.60;99.90;;;;;;5070718;28;20025;-73
2023/07/19 06:44:35;;;;;;;5.95;3.92;;;19.60;99.90;;;;;;5067870;28;20384;-73
2023/07/19 06:47:00;;;;;;;8.10;3.92;;;19.80;99.90;;;;;;5067463;28;20025;-73
2023/07/19 06:49:26;;;;;;;8.40;4.05;;;20.00;99.90;;;;;;5066740;28;20047;-73
2023/07/19 06:51:51;;;;;;;6.80;3.13;;;20.10;99.90;;;;;;5068587;28;20456;-73
2023/07/19 06:54:17;;;;;;;7.28;3.90;;;20.20;99.90;;;;;;5073201;28;20117;-73
2023/07/19 06:56:43;;;;;;;6.45;3.22;;;20.30;99.90;;;;;;5070823;28;20062;-73
2023/07/19 06:59:08;;;;;;;8.30;3.97;;;20.30;99.90;;;;;;5064231;28;20395;-73
2023/07/19 07:01:34;;;;;;;13.02;4.00;;;20.30;99.90;;;;;;5067849;28;20024;-73
2023/07/19 07:03:59;;;;;;;7.22;3.60;;;20.30;99.90;;;;;;5068572;28;20433;-73
2023/07/19 07:06:25;;;;;;;7.55;2.70;;;20.40;99.90;;;;;;5069574;28;20138;-73
2023/07/19 07:08:50;;;;;;;6.30;2.90;;;20.40;99.90;;;;;;5069286;28;20119;-73
2023/07/19 07:11:16;;;;;;;5.80;2.40;;;20.40;99.90;;;;;;5071045;28;20021;-73
2023/07/19 07:13:41;;;;;;;8.77;3.22;;;20.40;99.90;;;;;;5072291;28;20034;-73
2023/07/19 07:16:07;;;;;;;10.35;3.40;;;20.60;99.90;;;;;;5071379;28;20017;-73
2023/07/19 07:18:33;;;;;;;7.32;3.17;;;20.60;99.90;;;;;;5072776;28;20028;-73
2023/07/19 07:20:58;;;;;;;5.63;3.20;;;20.70;99.90;;;;;;5070440;28;20419;-73
2023/07/19 07:23:24;;;;;;;7.57;2.88;;;20.80;99.90;;;;;;5068958;28;20424;-73
2023/07/19 07:25:53;;;;;;;8.63;3.30;;;20.80;99.90;;;;;;5064469;28;20490;-73
2023/07/19 07:28:19;;;;;;;10.70;3.95;;;20.80;99.90;;;;;;5069279;28;20388;-73
2023/07/19 07:30:45;;;;;;;7.38;3.70;;;20.80;99.90;;;;;;5063990;28;20023;-73
2023/07/19 07:33:11;;;;;;;10.20;4.43;;;20.80;99.90;;;;;;5069049;28;20024;-73
2023/07/19 07:35:36;;;;;;;6.70;3.45;;;20.80;99.90;;;;;;5072142;28;20033;-73
2023/07/19 07:38:03;;;;;;;7.40;3.22;;;20.90;99.90;;;;;;5071082;28;20039;-73
2023/07/19 07:40:28;;;;;;;8.27;2.97;;;21.00;99.90;;;;;;5063546;28;20119;-73
2023/07/19 07:42:54;;;;;;;6.85;3.42;;;21.20;99.90;;;;;;5069957;28;20033;-73
2023/07/19 07:45:19;;;;;;;10.38;3.33;;;21.30;99.90;;;;;;5064970;28;20030;-73
2023/07/19 07:47:45;;;;;;;7.18;2.85;;;21.50;99.90;;;;;;5062160;28;20029;-73
2023/07/19 07:50:10;;;;;;;8.82;2.97;;;21.60;99.90;;;;;;5067108;28;20115;-73
2023/07/19 07:52:37;;;;;;;6.60;2.42;;;21.70;99.90;;;;;;5069533;28;20027;-73
2023/07/19 07:55:05;;;;;;;5.45;2.35;;;22.00;99.90;;;;;;5068555;28;20471;-73
2023/07/19 07:57:33;;;;;;;5.63;1.98;;;22.10;99.90;;;;;;5069518;28;20503;-73
2023/07/19 08:00:02;;;;;;;6.68;2.00;;;22.30;99.90;;;;;;5070770;28;20767;-73
2023/07/19 08:02:28;;;;;;;7.25;2.90;;;22.30;99.90;;;;;;5070665;28;20044;-73
2023/07/19 08:04:54;;;;;;;7.50;2.22;;;22.20;99.90;;;;;;5060326;28;20472;-73
2023/07/19 08:07:19;;;;;;;6.60;2.80;;;22.10;99.90;;;;;;5068783;28;20103;-73
2023/07/19 08:09:45;;;;;;;5.28;2.22;;;22.00;99.90;;;;;;5069019;28;20033;-73
2023/07/19 08:12:11;;;;;;;10.77;2.20;;;22.00;99.90;;;;;;5085654;22;20056;-92
2023/07/19 08:14:37;;;;;;;8.43;2.70;;;22.10;99.90;;;;;;5522265;22;20044;-96
2023/07/19 08:17:02;;;;;;;6.30;1.85;;;22.10;99.90;;;;;;5028202;28;20029;-92
2023/07/19 08:19:28;;;;;;;6.80;2.17;;;22.10;99.90;;;;;;5047713;28;20025;-92
2023/07/19 08:22:01;;;;;;;8.07;2.38;;;22.10;99.90;;;;;;5054900;28;20029;-95
2023/07/19 08:24:27;;;;;;;7.25;2.03;;;22.20;99.90;;;;;;5060867;28;20033;-95
2023/07/19 08:26:52;;;;;;;7.90;2.33;;;22.30;99.90;;;;;;5057170;28;20036;-96
2023/07/19 08:29:18;;;;;;;5.22;2.05;;;22.30;99.90;;;;;;5058933;28;20025;-94
2023/07/19 08:31:43;;;;;;;6.60;2.33;;;22.40;99.90;;;;;;5051573;28;20028;-95
2023/07/19 08:34:09;;;;;;;5.82;2.20;;;22.50;99.90;;;;;;5042548;28;20033;-95
2023/07/19 08:36:34;;;;;;;9.70;2.40;;;22.70;99.90;;;;;;5054757;28;20469;-96
2023/07/19 08:39:00;;;;;;;10.63;1.98;;;22.90;99.90;;;;;;5053554;28;20025;-96
2023/07/19 08:41:29;;;;;;;6.38;1.70;;;22.90;99.90;;;;;;5056427;28;20029;-96
2023/07/19 08:43:55;;;;;;;4.80;1.25;;;22.80;99.90;;;;;;5055804;28;20025;-96
2023/07/19 08:46:22;;;;;;;6.30;1.90;;;22.70;99.90;;;;;;5061154;28;20021;-96
2023/07/19 08:48:48;;;;;;;6.05;1.50;;;22.80;99.90;;;;;;5062011;28;20421;-94
2023/07/19 08:51:15;;;;;;;4.70;1.25;;;22.90;99.90;;;;;;5059913;28;20051;-94
2023/07/19 08:53:41;;;;;;;9.77;1.50;;;23.00;99.90;;;;;;5057166;28;20136;-92
2023/07/19 08:56:07;;;;;;;5.80;1.55;;;23.00;99.80;;;;;;5052105;28;20021;-91
2023/07/19 08:58:39;;;;;;;6.85;1.67;;;23.00;99.90;;;;;;5051631;28;20158;-91
2023/07/19 09:01:05;;;;;;;6.22;1.10;;;22.90;99.90;;;;;;5047416;28;20030;-94
2023/07/19 09:03:30;;;;;;;5.47;1.05;;;23.00;99.90;;;;;;5049168;28;20481;-92
2023/07/19 09:05:56;;;;;;;4.47;1.10;;;23.00;99.30;;;;;;5049679;28;20029;-91
2023/07/19 09:08:34;;;;;;;3.95;1.23;;;22.80;99.50;;;;;;5051803;28;20033;-94
2023/07/19 09:10:59;;;;;;;7.40;1.70;;;22.60;99.70;;;;;;5051148;28;20687;-92
2023/07/19 09:13:25;;;;;;;3.72;1.42;;;22.50;99.80;;;;;;5050947;28;20045;-93
2023/07/19 09:15:50;;;;;;;4.82;1.20;;;22.40;99.90;;;;;;5050247;28;20098;-91
2023/07/19 09:18:17;;;;;;;4.40;1.00;;;22.20;99.90;;;;;;5042406;28;20067;-92
2023/07/19 09:20:42;;;;;;;3.45;0.90;;;22.20;99.90;;;;;;5043024;28;20017;-92
2023/07/19 09:23:08;;;;;;;3.78;0.80;;;22.20;99.90;;;;;;5051693;28;20102;-92
2023/07/19 09:25:54;;;;;;;4.65;1.02;;;22.20;99.90;;;;;;5050660;28;20057;-92
2023/07/19 09:28:22;;;;;;;4.25;1.00;;;22.40;99.90;;;;;;5051797;28;20033;-90
2023/07/19 09:30:56;;;;;;;3.20;0.90;;;22.30;99.90;;;;;;5051433;28;20028;-92
2023/07/19 09:33:21;;;;;;;2.80;0.50;;;22.30;99.90;;;;;;5051967;28;20040;-91
2023/07/19 09:35:53;;;;;;;4.80;0.68;;;22.40;99.90;;;;;;5050754;28;20025;-92
2023/07/19 09:38:20;;;;;;;3.58;0.55;;;22.60;99.60;;;;;;5049121;28;20029;-93
2023/07/19 09:40:46;;;;;;;4.38;0.77;;;22.70;99.20;;;;;;5031459;28;20029;-92
2023/07/19 09:43:13;;;;;;;3.90;0.80;;;23.00;98.20;;;;;;5049247;28;20029;-92
2023/07/19 09:45:40;;;;;;;5.50;0.60;;;23.20;97.70;;;;;;5050099;28;20021;-92
2023/07/19 09:48:08;;;;;;;3.95;0.50;;;23.20;97.10;;;;;;5040696;28;20036;-93
2023/07/19 09:50:34;;;;;;;2.88;0.50;;;23.00;96.80;;;;;;5049901;28;20087;-92
2023/07/19 09:53:02;;;;;;;5.00;0.60;;;23.10;96.50;;;;;;5051578;28;20013;-92
2023/07/19 09:55:30;;;;;;;2.22;0.45;;;23.30;95.60;;;;;;5043869;28;20021;-93
2023/07/19 09:57:57;;;;;;;2.58;0.55;;;23.60;95.00;;;;;;5053501;28;20506;-91
2023/07/19 10:00:23;;;;;;;2.92;0.70;;;23.80;94.70;;;;;;5052238;28;20033;-92
2023/07/19 10:02:48;;;;;;;3.65;0.50;;;24.10;94.20;;;;;;5053706;28;20362;-92
2023/07/19 10:05:14;;;;;;;3.03;0.50;;;24.30;93.70;;;;;;5047409;28;20030;-92
2023/07/19 10:07:40;;;;;;;3.17;0.60;;;24.40;93.40;;;;;;5043165;28;20103;-92
2023/07/19 10:10:06;;;;;;;3.13;0.70;;;24.50;93.40;;;;;;5054267;28;20028;-92
2023/07/19 10:12:36;;;;;;;4.38;0.70;;;24.50;93.00;;;;;;5048553;28;20044;-92
2023/07/19 10:15:07;;;;;;;2.95;0.60;;;24.50;93.20;;;;;;5054806;28;20079;-91
2023/07/19 10:17:54;;;;;;;3.57;0.70;;;24.80;92.70;;;;;;5043284;28;20084;-93
2023/07/19 10:20:35;;;;;;;5.43;0.70;;;24.70;92.10;;;;;;5036076;28;20107;-91
2023/07/19 10:23:08;;;;;;;4.10;0.73;;;24.40;92.20;;;;;;5054277;28;20028;-92
2023/07/19 10:25:48;;;;;;;4.50;0.70;;;24.40;92.70;;;;;;5054511;28;20029;-93
2023/07/19 10:28:24;;;;;;;5.93;0.70;;;24.50;92.50;;;;;;5045836;28;20065;-94
2023/07/19 10:30:59;;;;;;;3.25;0.80;;;24.40;92.50;;;;;;5047019;28;20033;-93
2023/07/19 10:33:27;;;;;;;5.10;1.52;;;24.30;92.60;;;;;;5051060;28;20022;-94
2023/07/19 10:35:55;;;;;;;4.03;0.70;;;24.30;92.70;;;;;;5052766;28;20029;-92
2023/07/19 10:38:26;;;;;;;4.13;1.20;;;24.40;93.20;;;;;;5045187;28;20074;-93
2023/07/19 10:41:00;;;;;;;2.83;0.75;;;24.60;92.80;;;;;;5046069;28;20044;-92
2023/07/19 10:43:27;;;;;;;5.10;0.90;;;24.70;92.70;;;;;;5044642;28;20048;-92
2023/07/19 10:45:53;;;;;;;3.42;0.90;;;24.80;92.30;;;;;;5046937;28;20041;-93
2023/07/19 10:48:24;;;;;;;2.55;0.75;;;24.70;91.60;;;;;;5048316;28;20064;-92
2023/07/19 10:50:50;;;;;;;3.58;0.70;;;24.40;91.80;;;;;;5055703;28;20025;-93
2023/07/19 10:53:15;;;;;;;4.28;0.50;;;24.30;92.20;;;;;;5045581;28;20048;-93
2023/07/19 10:55:42;;;;;;;3.40;0.88;;;24.30;92.40;;;;;;5046166;28;20124;-92
2023/07/19 10:58:08;;;;;;;2.38;0.90;;;24.40;93.00;;;;;;5044264;28;20392;-93
2023/07/19 11:00:35;;;;;;;3.60;0.80;;;24.50;92.50;;;;;;5039492;28;20040;-93
2023/07/19 11:03:01;;;;;;;3.72;0.93;;;24.50;92.40;;;;;;5043631;28;20028;-93
2023/07/19 11:05:26;;;;;;;4.53;0.90;;;24.60;92.20;;;;;;5047808;28;20025;-94
2023/07/19 11:07:52;;;;;;;3.25;0.80;;;24.70;91.90;;;;;;5045606;28;20445;-94
2023/07/19 11:10:18;;;;;;;2.10;0.60;;;24.70;92.40;;;;;;5050147;28;20028;-94
2023/07/19 11:12:43;;;;;;;2.30;0.52;;;24.70;91.90;;;;;;5046033;28;20017;-95
2023/07/19 11:15:09;;;;;;;4.30;0.70;;;24.80;91.40;;;;;;5047583;28;20053;-96
2023/07/19 11:17:38;;;;;;;5.28;0.90;;;24.90;91.50;;;;;;5046598;28;20017;-95
2023/07/19 11:20:07;;;;;;;2.35;0.60;;;25.20;91.20;;;;;;5052046;28;20078;-96
2023/07/19 11:22:33;;;;;;;3.63;0.80;;;25.40;91.30;;;;;;5049746;28;20083;-94
2023/07/19 11:24:59;;;;;;;2.28;0.60;;;25.60;90.60;;;;;;5049058;28;20044;-93
2023/07/19 11:27:35;;;;;;;3.95;0.80;;;25.50;90.30;;;;;;5046944;28;20025;-95
2023/07/19 11:30:00;;;;;;;4.43;0.68;;;25.50;90.00;;;;;;5043950;28;20041;-95
2023/07/19 11:32:26;;;;;;;4.72;0.90;;;25.40;90.00;;;;;;5053919;28;20025;-94
2023/07/19 11:34:57;;;;;;;3.65;0.50;;;25.30;90.30;;;;;;5053426;28;20021;-95
2023/07/19 11:37:33;;;;;;;3.30;0.45;;;25.10;90.20;;;;;;5056220;28;20021;-96
2023/07/19 11:40:05;;;;;;;3.35;0.55;;;25.10;90.40;;;;;;5046022;28;20033;-94
2023/07/19 11:42:52;;;;;;;2.53;0.50;;;25.10;90.00;;;;;;5053924;28;20036;-94
2023/07/19 11:45:21;;;;;;;4.30;0.57;;;24.90;89.50;;;;;;5047518;28;20037;-93
2023/07/19 11:47:51;;;;;;;2.78;0.60;;;24.70;90.10;;;;;;5036143;28;20029;-93
2023/07/19 11:50:18;;;;;;;4.30;0.80;;;24.70;90.90;;;;;;5069065;28;20032;-96
2023/07/19 11:52:47;;;;;;;3.95;0.68;;;24.50;90.30;;;;;;5043158;28;20029;-95
2023/07/19 11:55:16;;;;;;;4.63;1.00;;;24.40;90.40;;;;;;5040981;28;20056;-96
2023/07/19 11:57:43;;;;;;;2.88;0.60;;;24.30;90.60;;;;;;5056908;28;20392;-95
2023/07/19 12:00:10;;;;;;;2.72;0.70;;;24.20;90.70;;;;;;5052919;28;20025;-94
2023/07/19 12:02:37;;;;;;;4.57;0.80;;;24.10;91.00;;;;;;5052559;28;20024;-94
2023/07/19 12:05:04;;;;;;;7.22;0.70;;;23.90;91.30;;;;;;5048180;28;20035;-94
2023/07/19 12:07:44;;;;;;;4.45;0.90;;;23.90;91.40;;;;;;5064278;28;20052;-93
2023/07/19 12:10:11;;;;;;;4.50;0.77;;;23.80;91.80;;;;;;5050981;28;20037;-94
2023/07/19 12:12:38;;;;;;;8.57;1.10;;;23.70;92.50;;;;;;5051364;28;20045;-95
2023/07/19 12:15:09;;;;;;;4.22;1.02;;;23.60;92.80;;;;;;5054534;28;20112;-96
2023/07/19 12:17:36;;;;;;;4.78;0.98;;;23.40;93.00;;;;;;5050456;28;20030;-96
2023/07/19 12:20:06;;;;;;;5.30;1.42;;;23.30;93.70;;;;;;5052055;28;20033;-95
2023/07/19 12:22:34;;;;;;;5.30;1.25;;;23.50;93.90;;;;;;5060520;28;20048;-95
2023/07/19 12:25:00;;;;;;;6.05;1.10;;;23.60;94.00;;;;;;5051048;28;20029;-96
2023/07/19 12:27:26;;;;;;;3.60;0.73;;;23.60;94.10;;;;;;5055794;28;20024;-94
2023/07/19 12:29:52;;;;;;;4.72;0.80;;;23.70;94.00;;;;;;5056505;28;20048;-94
2023/07/19 12:32:18;;;;;;;4.38;0.90;;;23.80;93.70;;;;;;5056451;28;20025;-95
2023/07/19 12:34:45;;;;;;;5.13;1.05;;;23.90;93.30;;;;;;5058635;28;20044;-95
2023/07/19 12:37:12;;;;;;;5.82;1.17;;;24.10;93.20;;;;;;5052455;28;20033;-96
2023/07/19 12:39:38;;;;;;;5.07;0.85;;;24.30;93.00;;;;;;5054658;28;20044;-95
2023/07/19 12:42:04;;;;;;;3.83;0.95;;;24.60;92.50;;;;;;5054909;28;20029;-95